Tomball, Texas
Current Conditions -  °F | °C
As of 1:53 AM on Wednesday 26 Nov 2014 (Local Time) from KDWH Reporting Station
Clear Clear  
Wind Chill: 44°   Ceiling: Unl
Heat Index: 46°   Visibility: 10mi
Dew Point: 35°   Wind: 5mph
Humidity: 66%   Direction: 210°SSW
Pressure: 30.21"   Gusts: NA
Location:  30.1°N, 95.62°W
Report Text: KDWH 260753Z 21004KT 10SM CLR 08/02 A3021 RMK AO2 SLP229 T00780017
Loading
Personal Weather Stations






























Interactive Weather Map New forecast layout! Learn more

10-Day Weather Forecast

Advertisements
Track Severe Weather on mobile